< < Back
Terminal Aerodrome Forecast


Current Version              Previous Versions:   1  2  3  4  5  6  7  8  9  

Terminal Aerodrome Forecast

637
FTUS42 KFFC 270734 AAA
TAFCSG
TAF AMD
KCSG 270734Z 2708/2806 28008G17KT P6SM SCT080
     FM271200 32012G23KT P6SM SCT060
     FM280000 34007KT P6SM SKC=



Latest METAR

453
SAUS70 KWBC 280100
MTRCSG
METAR KCSG 280051Z 34003KT 10SM CLR 06/M02 A3038 RMK AO2 SLP288
T00611022


USA.gov is the U.S. government's official web portal to all federal, state and local government web resources and services.